createdAt,value
2019-06-15T00:02:12.161Z,85.86
2019-06-15T00:04:41.609Z,85.37
2019-06-15T00:07:11.150Z,85.22
2019-06-15T00:09:40.572Z,85.39
2019-06-15T00:12:09.952Z,86.20
2019-06-15T00:14:39.419Z,86.66
2019-06-15T00:17:09.113Z,87.07
2019-06-15T00:19:38.576Z,87.77
2019-06-15T00:22:07.958Z,88.42
2019-06-15T00:24:37.408Z,89.39
2019-06-15T00:27:06.891Z,90.11
2019-06-15T00:29:36.354Z,90.24
2019-06-15T00:32:05.801Z,90.63
2019-06-15T00:34:35.247Z,90.85
2019-06-15T00:37:05.010Z,91.18
2019-06-15T00:39:34.474Z,91.53
2019-06-15T00:42:03.871Z,91.42
2019-06-15T00:44:33.377Z,91.32
2019-06-15T00:47:02.863Z,91.34
2019-06-15T00:49:35.839Z,91.45
2019-06-15T00:52:05.516Z,91.65
2019-06-15T00:54:47.352Z,91.97
2019-06-15T00:57:37.330Z,91.79
2019-06-15T01:00:12.236Z,92.20
2019-06-15T01:03:06.161Z,92.10
2019-06-15T01:06:29.449Z,91.89
2019-06-15T01:09:08.179Z,91.58
2019-06-15T01:11:47.242Z,92.08
2019-06-15T01:15:18.025Z,92.70
2019-06-15T01:18:29.911Z,93.00
2019-06-15T01:21:10.164Z,92.49
2019-06-15T01:27:18.605Z,91.63
2019-06-15T01:30:13.641Z,91.11
2019-06-15T01:33:00.292Z,88.29
2019-06-15T01:35:41.067Z,87.07
2019-06-15T01:38:22.386Z,86.38
2019-06-15T01:41:03.141Z,86.03
2019-06-15T01:44:16.933Z,85.90
2019-06-15T01:46:46.391Z,86.59
2019-06-15T01:49:15.912Z,86.76
2019-06-15T01:51:45.369Z,86.52
2019-06-15T01:54:14.743Z,86.65
2019-06-15T01:56:44.244Z,86.77
2019-06-15T01:59:13.653Z,87.23
2019-06-15T02:01:43.119Z,87.62
2019-06-15T02:04:12.638Z,87.89
2019-06-15T02:06:42.101Z,87.76
2019-06-15T02:09:11.499Z,87.79
2019-06-15T02:11:40.998Z,87.51
2019-06-15T02:14:10.476Z,87.28
2019-06-15T02:16:40.022Z,86.94
2019-06-15T02:19:09.439Z,87.18
2019-06-15T02:21:38.889Z,87.33
2019-06-15T02:24:08.364Z,87.89
2019-06-15T02:26:37.823Z,87.56
2019-06-15T02:29:07.204Z,87.76
2019-06-15T02:31:36.650Z,87.82
2019-06-15T02:34:06.274Z,88.06
2019-06-15T02:36:35.804Z,87.50
2019-06-15T02:39:07.247Z,87.80
2019-06-15T02:41:36.684Z,88.18
2019-06-15T02:44:06.064Z,88.66
2019-06-15T02:46:35.645Z,88.88
2019-06-15T02:49:05.250Z,89.20
2019-06-15T02:51:34.765Z,89.40
2019-06-15T02:54:04.542Z,89.43
2019-06-15T02:56:34.033Z,89.38
2019-06-15T02:59:03.526Z,89.27
2019-06-15T03:01:32.977Z,89.11
2019-06-15T03:04:02.498Z,88.73
2019-06-15T03:06:31.971Z,88.52
2019-06-15T03:09:01.462Z,88.25
2019-06-15T03:11:32.325Z,88.27
2019-06-15T03:14:03.424Z,88.52
2019-06-15T03:16:32.884Z,88.15
2019-06-15T03:19:02.341Z,87.72
2019-06-15T03:21:31.777Z,87.32
2019-06-15T03:24:01.276Z,86.85
2019-06-15T03:26:30.732Z,86.39
2019-06-15T03:29:00.135Z,86.22
2019-06-15T03:31:29.584Z,86.05
2019-06-15T03:33:59.104Z,85.87
2019-06-15T03:36:28.634Z,86.09
2019-06-15T03:38:58.010Z,85.61
2019-06-15T03:41:27.499Z,85.41
2019-06-15T03:43:56.979Z,85.49
2019-06-15T03:46:26.438Z,85.11
2019-06-15T03:48:55.857Z,84.60
2019-06-15T03:51:25.306Z,84.51
2019-06-15T03:53:54.787Z,83.90
2019-06-15T03:56:24.250Z,83.57
2019-06-15T03:58:53.703Z,83.83
2019-06-15T04:01:32.715Z,83.89
2019-06-15T04:04:02.102Z,83.77
2019-06-15T04:06:31.531Z,83.57
2019-06-15T04:09:01.074Z,83.35
2019-06-15T04:11:30.478Z,82.87
2019-06-15T04:14:01.039Z,82.39
2019-06-15T04:16:30.527Z,81.31
2019-06-15T04:19:00.016Z,80.89
2019-06-15T04:21:29.518Z,80.28
2019-06-15T04:23:58.940Z,80.44
2019-06-15T04:26:35.934Z,79.44
2019-06-15T04:28:59.623Z,78.98
2019-06-15T04:31:29.085Z,76.98
2019-06-15T04:33:58.500Z,74.55
2019-06-15T04:36:27.978Z,72.59
2019-06-15T04:38:57.467Z,70.86
2019-06-15T04:41:26.911Z,68.79
2019-06-15T04:43:56.400Z,67.45
2019-06-15T04:46:25.871Z,66.40
2019-06-15T04:48:55.245Z,66.08
2019-06-15T04:51:24.727Z,65.27
2019-06-15T04:53:54.272Z,63.67
2019-06-15T04:56:23.698Z,63.51
2019-06-15T04:58:53.093Z,63.62
2019-06-15T05:01:22.564Z,64.05
2019-06-15T05:03:52.061Z,65.15
2019-06-15T05:06:21.539Z,64.36
2019-06-15T05:08:50.955Z,63.86
2019-06-15T05:11:20.402Z,62.25
2019-06-15T05:13:49.989Z,60.22
2019-06-15T05:16:19.436Z,59.08
2019-06-15T05:18:48.891Z,58.08
2019-06-15T05:21:18.309Z,58.87
2019-06-15T05:23:47.739Z,60.35
2019-06-15T05:26:17.189Z,60.43
2019-06-15T05:28:46.677Z,60.46
2019-06-15T05:31:16.154Z,59.18
2019-06-15T05:33:45.537Z,55.34
2019-06-15T05:36:14.985Z,51.93
2019-06-15T05:38:44.597Z,49.73
2019-06-15T05:41:15.779Z,47.93
2019-06-15T05:43:45.308Z,47.34
2019-06-15T05:46:14.804Z,48.94
2019-06-15T05:48:44.306Z,49.85
2019-06-15T05:51:13.758Z,51.30
2019-06-15T05:53:43.178Z,52.33
2019-06-15T05:56:12.630Z,53.45
2019-06-15T05:58:42.120Z,52.83
2019-06-15T06:01:11.586Z,50.21
2019-06-15T06:03:40.975Z,48.77
2019-06-15T06:06:10.447Z,49.23
2019-06-15T06:08:40.076Z,49.72
2019-06-15T06:11:09.559Z,49.98
2019-06-15T06:13:38.946Z,50.29
2019-06-15T06:16:08.442Z,47.80
2019-06-15T06:18:37.937Z,46.06
2019-06-15T06:21:07.398Z,45.68
2019-06-15T06:23:36.828Z,46.23
2019-06-15T06:26:06.296Z,46.33
2019-06-15T06:28:35.799Z,47.93
2019-06-15T06:31:05.391Z,47.86
2019-06-15T06:33:34.815Z,47.39
2019-06-15T06:36:06.306Z,47.85
2019-06-15T06:38:35.976Z,48.70
2019-06-15T06:41:05.489Z,49.22
2019-06-15T06:43:35.007Z,48.21
2019-06-15T06:46:05.431Z,48.04
2019-06-15T06:48:35.160Z,48.53
2019-06-15T06:51:04.832Z,48.70
2019-06-15T06:53:34.531Z,48.14
2019-06-15T06:56:05.051Z,47.93
2019-06-15T06:58:34.575Z,48.22
2019-06-15T07:01:04.352Z,47.01
2019-06-15T07:03:33.998Z,45.87
2019-06-15T07:06:06.481Z,45.52
2019-06-15T07:08:41.529Z,45.96
2019-06-15T07:11:11.068Z,45.37
2019-06-15T07:13:43.853Z,43.42
2019-06-15T07:16:17.746Z,43.19
2019-06-15T07:18:47.272Z,43.36
2019-06-15T07:21:20.097Z,43.10
2019-06-15T07:23:49.563Z,42.87
2019-06-15T07:26:19.104Z,42.53
2019-06-15T07:28:48.640Z,41.85
2019-06-15T07:31:18.086Z,41.74
2019-06-15T07:33:47.464Z,42.05
2019-06-15T07:36:17.116Z,39.66
2019-06-15T07:38:46.601Z,39.16
2019-06-15T07:41:16.150Z,39.67
2019-06-15T07:43:45.576Z,39.48
2019-06-15T07:46:15.051Z,40.38
2019-06-15T07:48:44.563Z,38.59
2019-06-15T07:51:14.101Z,39.24
2019-06-15T07:53:45.646Z,39.23
2019-06-15T07:56:16.130Z,38.94
2019-06-15T07:58:46.221Z,37.74
2019-06-15T08:10:14.070Z,34.90
2019-06-15T08:12:43.631Z,33.99
2019-06-15T08:15:13.279Z,35.44
2019-06-15T08:17:45.530Z,34.79
2019-06-15T08:20:14.539Z,35.38
2019-06-15T08:22:44.042Z,35.92
2019-06-15T08:25:14.629Z,35.35
2019-06-15T08:27:44.053Z,35.35
2019-06-15T08:30:15.073Z,34.34
2019-06-15T08:32:44.680Z,34.79
2019-06-15T08:35:14.311Z,35.39
2019-06-15T08:37:43.709Z,35.63
2019-06-15T08:40:13.705Z,36.16
2019-06-15T08:42:43.721Z,36.56
2019-06-15T08:45:13.108Z,36.56
2019-06-15T08:47:42.594Z,37.68
2019-06-15T08:50:12.138Z,36.43
2019-06-15T08:52:41.548Z,36.63
2019-06-15T08:55:11.309Z,35.46
2019-06-15T08:57:40.846Z,36.26
2019-06-15T09:00:11.561Z,35.85
2019-06-15T09:02:40.942Z,36.19
2019-06-15T09:05:10.800Z,36.72
2019-06-15T09:07:40.277Z,36.62
2019-06-15T09:10:10.593Z,37.11
2019-06-15T09:12:40.221Z,36.83
2019-06-15T09:15:11.227Z,35.15
2019-06-15T09:17:40.710Z,34.91
2019-06-15T09:20:11.059Z,36.13
2019-06-15T09:22:40.509Z,36.89
2019-06-15T09:25:10.223Z,37.45
2019-06-15T09:27:39.674Z,37.47
2019-06-15T09:30:09.382Z,35.09
2019-06-15T09:32:38.887Z,36.65
2019-06-15T09:35:09.313Z,36.69
2019-06-15T09:37:38.714Z,35.21
2019-06-15T09:40:08.620Z,35.76
2019-06-15T09:42:38.161Z,34.21
2019-06-15T09:45:07.867Z,34.64
2019-06-15T09:47:37.254Z,36.23
2019-06-15T09:50:07.116Z,35.74
2019-06-15T09:52:36.738Z,35.36
2019-06-15T09:55:06.679Z,36.20
2019-06-15T09:57:36.284Z,35.74
2019-06-15T10:00:06.530Z,35.92
2019-06-15T10:02:36.069Z,34.07
2019-06-15T10:05:06.331Z,32.59
2019-06-15T10:07:35.897Z,34.06
2019-06-15T10:10:05.825Z,34.89
2019-06-15T10:12:35.294Z,31.96
2019-06-15T10:15:06.038Z,33.35
2019-06-15T10:17:35.575Z,33.14
2019-06-15T10:20:06.234Z,32.08
2019-06-15T10:22:35.636Z,32.88
2019-06-15T10:25:05.243Z,32.89
2019-06-15T10:27:35.110Z,33.87
2019-06-15T10:30:04.823Z,33.75
2019-06-15T10:32:34.232Z,33.65
2019-06-15T10:35:03.828Z,33.60
2019-06-15T10:37:33.560Z,34.23
2019-06-15T10:40:03.086Z,34.79
2019-06-15T10:42:32.548Z,35.29
2019-06-15T10:45:02.058Z,35.83
2019-06-15T10:47:31.561Z,35.04
2019-06-15T10:50:01.107Z,34.63
2019-06-15T10:52:30.995Z,33.34
2019-06-15T10:55:00.439Z,32.83
2019-06-15T10:57:30.157Z,32.47
2019-06-15T10:59:59.678Z,33.46
2019-06-15T11:02:29.233Z,33.44
2019-06-15T11:04:58.654Z,34.33
2019-06-15T11:07:28.179Z,34.88
2019-06-15T11:09:57.667Z,34.93
2019-06-15T11:12:27.281Z,35.24
2019-06-15T11:14:57.370Z,35.36
2019-06-15T11:17:26.856Z,35.01
2019-06-15T11:19:56.361Z,35.46
2019-06-15T11:22:25.916Z,33.79
2019-06-15T11:24:55.448Z,32.64
2019-06-15T11:27:24.824Z,32.92
2019-06-15T11:29:54.392Z,33.31
2019-06-15T11:32:23.883Z,33.58
2019-06-15T11:34:53.280Z,34.35
2019-06-15T11:37:22.860Z,34.72
2019-06-15T11:39:52.354Z,34.20
2019-06-15T11:42:21.859Z,34.07
2019-06-15T11:44:51.286Z,34.76
2019-06-15T11:47:20.693Z,34.50
2019-06-15T11:49:50.224Z,33.55
2019-06-15T11:52:19.802Z,34.83
2019-06-15T11:54:49.191Z,34.64
2019-06-15T11:57:18.858Z,34.41
2019-06-15T11:59:48.482Z,34.74
2019-06-15T12:02:17.978Z,36.08
2019-06-15T12:04:57.965Z,36.21
2019-06-15T12:07:18.618Z,35.62
2019-06-15T12:09:48.027Z,35.31
2019-06-15T12:12:17.423Z,34.61
2019-06-15T12:14:46.981Z,35.65
2019-06-15T12:17:17.592Z,34.76
2019-06-15T12:19:46.975Z,35.02
2019-06-15T12:22:16.445Z,36.15
2019-06-15T12:24:46.252Z,35.66
2019-06-15T12:27:15.763Z,36.40
2019-06-15T12:29:45.195Z,36.58
2019-06-15T12:32:14.698Z,35.01
2019-06-15T12:34:44.207Z,35.95
2019-06-15T12:37:13.732Z,35.50
2019-06-15T12:39:43.284Z,35.13
2019-06-15T12:42:12.652Z,35.38
2019-06-15T12:44:42.195Z,35.24
2019-06-15T12:47:11.588Z,36.83
2019-06-15T12:49:41.076Z,35.49
2019-06-15T12:52:10.640Z,35.72
2019-06-15T12:54:40.028Z,35.13
2019-06-15T12:57:10.824Z,34.80
2019-06-15T12:59:41.319Z,34.39
2019-06-15T13:02:10.847Z,34.51
2019-06-15T13:04:40.210Z,33.88
2019-06-15T13:07:09.708Z,33.82
2019-06-15T13:09:39.192Z,33.17
2019-06-15T13:12:08.703Z,33.51
2019-06-15T13:14:38.126Z,33.85
2019-06-15T13:17:07.575Z,33.80
2019-06-15T13:19:37.066Z,34.15
2019-06-15T13:22:06.611Z,34.37
2019-06-15T13:24:36.098Z,34.33
2019-06-15T13:27:05.742Z,34.01
2019-06-15T13:29:35.124Z,34.46
2019-06-15T13:32:04.514Z,34.41
2019-06-15T13:34:33.999Z,35.10
2019-06-15T13:37:05.024Z,35.90
2019-06-15T13:39:34.404Z,36.45
2019-06-15T13:42:04.094Z,35.68
2019-06-15T13:44:33.662Z,36.56
2019-06-15T13:47:03.158Z,36.21
2019-06-15T13:49:32.550Z,36.92
2019-06-15T13:52:01.981Z,37.68
2019-06-15T13:54:31.522Z,36.52
2019-06-15T13:57:00.998Z,35.34
2019-06-15T13:59:30.547Z,35.53
2019-06-15T14:01:59.936Z,36.57
2019-06-15T14:04:29.520Z,37.02
2019-06-15T14:06:59.007Z,36.73
2019-06-15T14:09:28.502Z,36.25
2019-06-15T14:11:57.969Z,36.39
2019-06-15T14:14:27.384Z,36.55
2019-06-15T14:16:57.648Z,37.25
2019-06-15T14:19:27.128Z,38.25
2019-06-15T14:21:56.623Z,36.46
2019-06-15T14:24:26.025Z,36.39
2019-06-15T14:26:55.395Z,37.12
2019-06-15T14:29:24.911Z,36.88
2019-06-15T14:31:54.461Z,37.43
2019-06-15T14:34:23.815Z,37.41
2019-06-15T14:36:53.194Z,36.76
2019-06-15T14:39:22.734Z,36.56
2019-06-15T14:41:52.221Z,36.10
2019-06-15T14:44:21.609Z,36.16
2019-06-15T14:46:51.136Z,36.34
2019-06-15T14:49:20.622Z,36.59
2019-06-15T14:51:51.099Z,36.77
2019-06-15T14:54:20.742Z,37.12
2019-06-15T14:56:50.230Z,36.39
2019-06-15T14:59:19.673Z,36.27
2019-06-15T15:01:49.128Z,36.24
2019-06-15T15:04:18.668Z,35.48
2019-06-15T15:06:48.186Z,35.89
2019-06-15T15:09:17.598Z,35.80
2019-06-15T15:11:47.119Z,36.04
2019-06-15T15:14:17.375Z,36.02
2019-06-15T15:16:47.035Z,35.96
2019-06-15T15:19:16.777Z,37.14
2019-06-15T15:21:46.288Z,35.72
2019-06-15T15:24:16.716Z,35.72
2019-06-15T15:26:47.076Z,35.53
2019-06-15T15:29:16.732Z,36.66
2019-06-15T15:31:46.789Z,36.47
2019-06-15T15:34:17.391Z,34.98
2019-06-15T15:36:46.969Z,35.79
2019-06-15T15:39:16.784Z,35.48
2019-06-15T15:41:47.010Z,35.95
2019-06-15T15:44:16.626Z,35.64
2019-06-15T15:46:46.386Z,34.94
2019-06-15T15:49:16.427Z,35.35
2019-06-15T15:51:47.330Z,34.93
2019-06-15T15:54:16.889Z,35.54
2019-06-15T15:56:46.759Z,35.43
2019-06-15T15:59:16.420Z,35.13
2019-06-15T16:01:46.343Z,35.96
2019-06-15T16:04:17.042Z,35.75
2019-06-15T16:06:46.920Z,36.49
2019-06-15T16:09:17.002Z,36.66
2019-06-15T16:11:47.413Z,36.57
2019-06-15T16:14:17.251Z,37.17
2019-06-15T16:16:46.999Z,35.45
2019-06-15T16:19:17.103Z,35.98
2019-06-15T16:21:47.222Z,36.38
2019-06-15T16:24:16.988Z,36.60
2019-06-15T16:26:46.880Z,36.61
2019-06-15T16:29:16.915Z,37.61
2019-06-15T16:31:46.308Z,37.84
2019-06-15T16:34:16.231Z,37.84
2019-06-15T16:36:46.979Z,38.91
2019-06-15T16:39:16.888Z,38.28
2019-06-15T16:41:47.112Z,38.24
2019-06-15T16:44:17.404Z,38.58
2019-06-15T16:46:47.064Z,38.46
2019-06-15T16:49:20.515Z,39.04
2019-06-15T16:51:47.591Z,38.94
2019-06-15T16:54:17.087Z,38.43
2019-06-15T16:56:46.850Z,39.27
2019-06-15T16:59:16.304Z,38.87
2019-06-15T17:01:45.688Z,39.20
2019-06-15T17:04:16.559Z,39.68
2019-06-15T17:06:46.279Z,39.83
2019-06-15T17:09:16.918Z,40.28
2019-06-15T17:11:47.134Z,40.65
2019-06-15T17:14:17.255Z,40.49
2019-06-15T17:16:47.711Z,40.91
2019-06-15T17:19:17.182Z,41.29
2019-06-15T17:21:46.748Z,41.60
2019-06-15T17:24:17.088Z,41.75
2019-06-15T17:26:46.954Z,42.22
2019-06-15T17:29:16.472Z,42.52
2019-06-15T17:31:46.738Z,42.58
2019-06-15T17:34:16.742Z,43.25
2019-06-15T17:36:47.279Z,43.49
2019-06-15T17:39:17.182Z,43.83
2019-06-15T17:41:47.363Z,43.67
2019-06-15T17:44:17.161Z,44.47
2019-06-15T17:46:46.732Z,44.67
2019-06-15T17:49:17.942Z,45.04
2019-06-15T17:51:47.650Z,45.42
2019-06-15T17:54:17.212Z,45.90
2019-06-15T17:56:46.642Z,46.38
2019-06-15T17:59:16.430Z,46.47
2019-06-15T18:01:46.876Z,46.74
2019-06-15T18:04:16.819Z,46.92
2019-06-15T18:06:46.947Z,47.28
2019-06-15T18:09:17.205Z,47.52
2019-06-15T18:11:46.744Z,47.61
2019-06-15T18:14:17.722Z,47.77
2019-06-15T18:16:47.441Z,48.08
2019-06-15T18:19:17.242Z,48.15
2019-06-15T18:21:47.005Z,48.65
2019-06-15T18:24:16.647Z,49.27
2019-06-15T18:26:47.433Z,49.94
2019-06-15T18:29:17.024Z,50.22
2019-06-15T18:31:46.420Z,50.33
2019-06-15T18:34:16.895Z,50.63
2019-06-15T18:36:46.759Z,50.96
2019-06-15T18:39:16.655Z,51.29
2019-06-15T18:41:46.350Z,51.69
2019-06-15T18:44:16.197Z,51.91
2019-06-15T18:46:46.603Z,51.55
2019-06-15T18:49:16.322Z,51.91
2019-06-15T18:51:46.163Z,52.50
2019-06-15T18:54:16.102Z,52.72
2019-06-15T18:56:46.063Z,52.26
2019-06-15T18:59:16.809Z,52.70
2019-06-15T19:01:47.090Z,52.25
2019-06-15T19:04:24.595Z,52.38
2019-06-15T19:06:47.703Z,51.93
2019-06-15T19:09:17.229Z,52.39
2019-06-15T19:11:46.868Z,52.20
2019-06-15T19:14:16.655Z,52.32
2019-06-15T19:16:47.166Z,52.33
2019-06-15T19:19:17.190Z,52.04
2019-06-15T19:21:46.956Z,52.63
2019-06-15T19:24:16.852Z,53.02
2019-06-15T19:26:47.183Z,52.94
2019-06-15T19:29:17.160Z,53.67
2019-06-15T19:31:46.923Z,53.90
2019-06-15T19:34:16.849Z,54.46
2019-06-15T19:36:46.845Z,54.68
2019-06-15T19:39:16.702Z,54.82
2019-06-15T19:41:46.255Z,55.00
2019-06-15T19:44:16.321Z,55.71
2019-06-15T19:46:47.721Z,56.04
2019-06-15T19:49:17.478Z,56.12
2019-06-15T19:51:47.368Z,56.24
2019-06-15T19:54:16.898Z,56.69
2019-06-15T19:56:46.772Z,56.52
2019-06-15T19:59:17.105Z,57.48
2019-06-15T20:01:46.932Z,57.86
2019-06-15T20:04:17.069Z,58.35
2019-06-15T20:06:46.467Z,58.40
2019-06-15T20:09:15.964Z,58.52
2019-06-15T20:11:46.811Z,58.28
2019-06-15T20:14:16.590Z,58.20
2019-06-15T20:16:47.020Z,58.36
2019-06-15T20:19:17.460Z,58.19
2019-06-15T20:21:47.216Z,56.49
2019-06-15T20:24:19.156Z,54.75
2019-06-15T20:26:47.842Z,53.81
2019-06-15T20:29:17.545Z,54.17
2019-06-15T20:31:47.042Z,54.08
2019-06-15T20:34:16.617Z,54.17
2019-06-15T20:36:47.119Z,54.37
2019-06-15T20:39:16.749Z,55.07
2019-06-15T20:41:47.215Z,55.97
2019-06-15T20:44:16.696Z,56.89
2019-06-15T20:46:46.532Z,57.69
2019-06-15T20:49:16.044Z,59.29
2019-06-15T20:51:46.257Z,60.71
2019-06-15T20:54:16.836Z,61.94
2019-06-15T20:56:46.475Z,63.64
2019-06-15T20:59:16.944Z,65.25
2019-06-15T21:01:46.511Z,66.00
2019-06-15T21:04:16.252Z,66.06
2019-06-15T21:06:45.785Z,67.11
2019-06-15T21:09:18.608Z,67.33
2019-06-15T21:11:46.409Z,67.57
2019-06-15T21:14:15.920Z,67.45
2019-06-15T21:16:46.372Z,68.86
2019-06-15T21:19:17.021Z,68.52
2019-06-15T21:21:47.167Z,68.37
2019-06-15T21:24:17.112Z,68.32
2019-06-15T21:26:46.584Z,67.87
2019-06-15T21:29:16.740Z,68.07
2019-06-15T21:31:46.535Z,68.37
2019-06-15T21:34:16.025Z,68.90
2019-06-15T21:36:46.037Z,69.21
2019-06-15T21:39:15.711Z,69.59
2019-06-15T21:41:46.276Z,69.83
2019-06-15T21:44:16.797Z,69.84
2019-06-15T21:46:46.881Z,69.38
2019-06-15T21:49:16.588Z,69.68
2019-06-15T21:51:47.376Z,69.40
2019-06-15T21:54:16.998Z,69.07
2019-06-15T21:56:46.429Z,68.42
2019-06-15T21:59:16.521Z,68.35
2019-06-15T22:01:46.199Z,67.65
2019-06-15T22:04:16.609Z,67.23
2019-06-15T22:06:47.728Z,67.22
2019-06-15T22:09:20.683Z,66.90
2019-06-15T22:11:48.886Z,67.12
2019-06-15T22:14:18.284Z,66.89
2019-06-15T22:16:47.852Z,66.66
2019-06-15T22:19:18.461Z,67.14
2019-06-15T22:21:48.016Z,67.37
2019-06-15T22:24:17.409Z,67.42
2019-06-15T22:26:46.931Z,67.99
2019-06-15T22:29:16.876Z,68.20
2019-06-15T22:31:46.842Z,67.99
2019-06-15T22:34:16.529Z,68.42
2019-06-15T22:36:47.961Z,68.17
2019-06-15T22:39:17.318Z,68.35
2019-06-15T22:41:47.123Z,68.64
2019-06-15T22:44:16.997Z,69.13
2019-06-15T22:46:46.669Z,68.35
2019-06-15T22:49:16.242Z,69.21
2019-06-15T22:51:46.003Z,69.63
2019-06-15T22:54:16.748Z,69.51
2019-06-15T22:56:46.710Z,69.62
2019-06-15T22:59:16.909Z,69.52
2019-06-15T23:01:46.495Z,69.43
2019-06-15T23:04:17.298Z,69.13
2019-06-15T23:06:48.228Z,69.26
2019-06-15T23:09:18.033Z,69.33
2019-06-15T23:11:47.566Z,68.79
2019-06-15T23:14:17.294Z,68.87
2019-06-15T23:16:47.721Z,69.17
2019-06-15T23:19:17.706Z,69.35
2019-06-15T23:21:48.371Z,68.85
2019-06-15T23:24:17.868Z,69.01
2019-06-15T23:26:47.365Z,69.38
2019-06-15T23:29:16.892Z,69.44
2019-06-15T23:31:46.402Z,69.60
2019-06-15T23:34:16.291Z,69.70
2019-06-15T23:36:56.716Z,70.11
2019-06-15T23:39:18.918Z,70.84
2019-06-15T23:41:48.508Z,71.62
2019-06-15T23:44:17.968Z,72.33
2019-06-15T23:46:47.473Z,73.07
2019-06-15T23:49:17.028Z,73.51
2019-06-15T23:51:46.857Z,73.46
2019-06-15T23:54:16.279Z,73.81
2019-06-15T23:56:46.310Z,74.18
2019-06-15T23:59:17.912Z,74.54
